Time;durP1;ratioP1;P1;durP2;ratioP2;P2;SDS_P1;SDS_P2;PMS_P1;PMS_P2;Temp;Humidity;BMP_temperature;BMP_pressure;BME280_temperature;BME280_humidity;BME280_pressure;Samples;Min_cycle;Max_cycle;Signal;HPM_P1;HPM_P2
2022/10/18 00:01:01;;;;;;;;;23.25;21.25;;;;;18.82;79.64;102109.72;4921572;28;45588;-84
2022/10/18 00:03:26;;;;;;;;;23.00;21.75;;;;;18.82;79.54;102115.97;4920612;28;45452;-85
2022/10/18 00:05:52;;;;;;;;;23.50;18.50;;;;;18.76;79.76;102097.34;4930916;28;45526;-85
2022/10/18 00:08:19;;;;;;;;;24.00;22.50;;;;;18.85;79.51;102102.56;4927718;28;48112;-85
2022/10/18 00:10:45;;;;;;;;;20.67;19.67;;;;;18.86;79.88;102108.78;4923509;28;45748;-84
2022/10/18 00:13:11;;;;;;;;;24.25;22.25;;;;;18.85;79.43;102101.69;4926393;28;45233;-84
2022/10/18 00:15:36;;;;;;;;;20.75;20.75;;;;;18.80;79.62;102099.09;4925728;28;45293;-84
2022/10/18 00:18:02;;;;;;;;;20.75;18.50;;;;;18.88;80.17;102118.53;4925759;28;45246;-85
2022/10/18 00:20:27;;;;;;;;;19.25;19.25;;;;;18.85;79.58;102102.56;4924385;28;45453;-85
2022/10/18 00:22:53;;;;;;;;;20.25;18.00;;;;;18.90;79.84;102119.38;4928400;28;45307;-84
2022/10/18 00:25:18;;;;;;;;;22.50;21.00;;;;;18.91;80.07;102114.94;4907638;28;46074;-85
2022/10/18 00:27:44;;;;;;;;;24.75;23.75;;;;;18.86;79.95;102108.78;4924707;28;46561;-85
2022/10/18 00:30:09;;;;;;;;;22.25;19.50;;;;;18.94;79.73;102112.19;4924397;28;45339;-85
2022/10/18 00:32:36;;;;;;;;;23.75;22.00;;;;;18.94;79.57;102125.53;4911580;28;45288;-86
2022/10/18 00:35:02;;;;;;;;;18.75;18.25;;;;;18.96;80.00;102118.41;4925161;28;45359;-83
2022/10/18 00:37:28;;;;;;;;;21.50;20.00;;;;;18.97;79.88;102113.94;4914784;28;48146;-84
2022/10/18 00:39:53;;;;;;;;;22.25;20.25;;;;;18.96;79.69;102118.41;4930871;28;45267;-85
2022/10/18 00:42:21;;;;;;;;;19.50;18.50;;;;;18.95;79.80;102116.63;4933660;28;45356;-86
2022/10/18 00:44:49;;;;;;;;;19.75;18.50;;;;;18.98;79.45;102119.28;4938416;28;44712;-85
2022/10/18 00:47:16;;;;;;;;;21.50;19.25;;;;;18.94;79.78;102122.88;4936289;28;45426;-84
2022/10/18 00:49:50;;;;;;;;;20.25;19.25;;;;;18.98;79.63;102124.59;4920152;28;45321;-84
2022/10/18 00:52:21;;;;;;;;;19.50;17.25;;;;;19.00;79.62;102119.22;4920060;28;45266;-84
2022/10/18 00:54:48;;;;;;;;;28.25;23.50;;;;;19.02;79.69;102128.97;4936312;28;45431;-84
2022/10/18 00:57:14;;;;;;;;;18.50;17.00;;;;;19.02;79.76;102136.09;4930832;28;45798;-85
2022/10/18 00:59:41;;;;;;;;;21.50;19.75;;;;;18.92;79.42;102122.00;4916398;28;45430;-86
2022/10/18 01:02:07;;;;;;;;;20.00;17.50;;;;;18.97;79.61;102128.16;4920706;28;45495;-86
2022/10/18 01:04:33;;;;;;;;;24.25;21.50;;;;;18.98;79.91;102129.03;4924639;28;45313;-86
2022/10/18 01:07:36;;;;;;;;;24.25;21.75;;;;;19.02;79.71;102136.09;4928068;28;45606;-85
2022/10/18 01:10:16;;;;;;;;;19.25;18.75;;;;;19.04;79.82;102135.16;4910731;28;45537;-85
2022/10/18 01:13:00;;;;;;;;;22.00;20.75;;;;;19.01;79.78;102142.34;4924473;28;45241;-85
2022/10/18 01:15:46;;;;;;;;;22.75;21.75;;;;;19.03;79.35;102143.19;4922939;28;45256;-85
2022/10/18 01:18:19;;;;;;;;;17.50;17.00;;;;;18.94;79.94;102147.78;4906604;28;47861;-86
2022/10/18 01:21:08;;;;;;;;;19.75;19.75;;;;;19.01;79.69;102150.38;4922517;28;45277;-85
2022/10/18 01:24:01;;;;;;;;;25.25;22.25;;;;;18.98;79.60;102145.06;4907079;28;45369;-85
2022/10/18 01:26:48;;;;;;;;;18.00;17.00;;;;;18.97;79.32;102149.50;4936628;28;45196;-85
2022/10/18 01:29:43;;;;;;;;;19.25;17.75;;;;;18.96;79.74;102147.75;4921852;28;47968;-86
2022/10/18 01:32:14;;;;;;;;;21.50;21.50;;;;;18.91;79.69;102138.94;4906034;28;45490;-85
2022/10/18 01:34:43;;;;;;;;;20.25;19.25;;;;;18.93;79.36;102155.81;4922456;28;45372;-86
2022/10/18 01:37:15;;;;;;;;;19.25;15.75;;;;;18.92;79.71;102148.69;4906837;28;45504;-85
2022/10/18 01:39:44;;;;;;;;;24.75;23.00;;;;;18.81;79.34;102127.53;4919203;28;46242;-85
2022/10/18 01:42:12;;;;;;;;;23.75;21.50;;;;;18.90;79.60;102148.75;4900079;28;45295;-86
2022/10/18 01:44:40;;;;;;;;;24.00;22.00;;;;;18.92;79.24;102146.94;4906531;28;45412;-84
2022/10/18 01:47:09;;;;;;;;;23.25;21.50;;;;;18.89;79.85;102149.63;4914016;28;45615;-85
2022/10/18 01:49:35;;;;;;;;;23.25;20.75;;;;;18.87;79.58;102140.78;4923273;28;46108;-85
2022/10/18 01:52:00;;;;;;;;;27.50;21.75;;;;;18.87;79.45;102140.78;4921758;28;45454;-85
2022/10/18 01:54:39;;;;;;;;;26.50;24.75;;;;;18.82;79.42;102131.06;4906300;28;45281;-85
2022/10/18 01:57:22;;;;;;;;;24.50;22.25;;;;;18.83;79.82;102138.19;4923123;28;45184;-85
2022/10/18 01:59:56;;;;;;;;;24.75;21.50;;;;;18.79;79.32;102136.47;4932143;28;47102;-85
2022/10/18 02:02:27;;;;;;;;;26.00;22.00;;;;;18.78;79.44;102143.59;4930178;28;45334;-85
2022/10/18 02:04:59;;;;;;;;;21.75;20.50;;;;;18.76;79.80;102137.38;4906056;28;45444;-86
2022/10/18 02:07:37;;;;;;;;;26.75;25.00;;;;;18.73;79.92;102137.41;4921804;28;45557;-85
2022/10/18 02:10:12;;;;;;;;;24.25;23.25;;;;;18.72;79.79;102138.31;4922852;28;45332;-85
2022/10/18 02:12:42;;;;;;;;;26.25;23.75;;;;;18.68;79.77;102139.25;4922089;28;45304;-86
2022/10/18 02:15:11;;;;;;;;;27.25;26.75;;;;;18.67;80.05;102142.84;4905934;28;45398;-85
2022/10/18 02:17:39;;;;;;;;;30.25;29.75;;;;;18.63;79.69;102141.09;4921172;28;45434;-86
2022/10/18 02:20:07;;;;;;;;;33.00;30.50;;;;;18.52;79.47;102134.16;4921448;28;48312;-85
2022/10/18 02:22:35;;;;;;;;;27.50;25.00;;;;;18.47;79.88;102136.03;4922831;28;45554;-86
2022/10/18 02:25:09;;;;;;;;;27.25;24.25;;;;;18.43;79.89;102139.63;4922938;28;45340;-86
2022/10/18 02:27:35;;;;;;;;;26.50;25.50;;;;;18.38;79.97;102125.47;4921353;28;45329;-86
2022/10/18 02:30:01;;;;;;;;;28.25;26.25;;;;;18.30;80.14;102132.69;4922514;28;46192;-86
2022/10/18 02:32:30;;;;;;;;;28.00;25.25;;;;;18.32;80.22;102140.69;4922478;28;45377;-85
2022/10/18 02:35:00;;;;;;;;;29.00;27.25;;;;;18.28;80.08;102145.16;4923020;28;45275;-86
2022/10/18 02:37:34;;;;;;;;;22.50;19.75;;;;;18.25;80.04;102148.75;4921051;28;45281;-86
2022/10/18 02:40:00;;;;;;;;;23.50;22.00;;;;;18.23;79.95;102147.91;4920824;28;47405;-86
2022/10/18 02:42:32;;;;;;;;;24.00;23.00;;;;;18.15;80.18;102131.13;4904950;28;46329;-86
2022/10/18 02:44:58;;;;;;;;;27.75;25.75;;;;;18.11;79.70;102134.72;4921100;28;45434;-85
2022/10/18 02:47:23;;;;;;;;;26.25;22.25;;;;;18.13;80.15;102145.38;4920727;28;45570;-86
2022/10/18 02:49:48;;;;;;;;;29.50;24.50;;;;;18.13;79.98;102156.03;4920996;28;47458;-86
2022/10/18 02:52:14;;;;;;;;;27.50;23.25;;;;;18.04;80.08;102144.59;4905151;28;45744;-86
2022/10/18 02:54:39;;;;;;;;;23.75;22.25;;;;;18.04;80.22;102147.25;4939361;28;45260;-84
2022/10/18 02:57:05;;;;;;;;;25.00;24.25;;;;;18.09;80.01;102155.16;4917210;28;45421;-86
2022/10/18 02:59:30;;;;;;;;;28.75;27.50;;;;;18.08;79.54;102156.97;4924900;28;45238;-86
2022/10/18 03:01:55;;;;;;;;;25.25;25.25;;;;;18.10;80.32;102169.41;4932069;28;45289;-85
2022/10/18 03:04:21;;;;;;;;;27.00;24.25;;;;;18.06;80.18;102160.53;4907175;28;45254;-85
2022/10/18 03:06:46;;;;;;;;;29.50;26.75;;;;;18.04;80.32;102165.00;4925220;28;45529;-85
2022/10/18 03:09:12;;;;;;;;;30.00;28.00;;;;;18.02;80.29;102158.84;4906621;28;47963;-84
2022/10/18 03:11:37;;;;;;;;;29.50;26.75;;;;;18.01;80.60;102168.59;4905461;28;45384;-85
2022/10/18 03:14:02;;;;;;;;;24.75;23.50;;;;;17.96;80.64;102161.53;4921083;28;45469;-85
2022/10/18 03:16:28;;;;;;;;;26.75;24.00;;;;;17.98;80.78;102165.97;4922027;28;45223;-85
2022/10/18 03:18:53;;;;;;;;;25.25;23.00;;;;;18.04;80.61;102176.56;4922126;28;46495;-86
2022/10/18 03:21:18;;;;;;;;;27.00;25.75;;;;;18.04;80.60;102171.25;4922054;28;45450;-85
2022/10/18 03:23:44;;;;;;;;;25.75;22.25;;;;;18.00;80.92;102173.94;4923525;28;45513;-85
2022/10/18 03:26:09;;;;;;;;;26.25;25.50;;;;;18.08;80.84;102190.72;4925380;28;45261;-86
2022/10/18 03:28:35;;;;;;;;;28.50;26.25;;;;;18.01;80.76;102173.03;4925096;28;45621;-85
2022/10/18 03:31:01;;;;;;;;;30.25;29.50;;;;;18.12;81.25;102195.09;4938225;28;45498;-85
2022/10/18 03:33:27;;;;;;;;;28.25;26.50;;;;;18.11;81.02;102195.16;4908343;28;45346;-85
2022/10/18 03:35:53;;;;;;;;;30.50;27.25;;;;;18.10;81.22;102190.72;4923884;28;45881;-85
2022/10/18 03:38:18;;;;;;;;;26.00;24.75;;;;;18.09;81.36;102184.50;4925272;28;46640;-86
2022/10/18 03:40:44;;;;;;;;;27.75;24.75;;;;;18.21;81.15;102194.13;4923660;28;45800;-85
2022/10/18 03:43:09;;;;;;;;;23.75;23.25;;;;;18.23;81.28;102194.97;4923932;28;45940;-85
2022/10/18 03:45:34;;;;;;;;;27.75;25.25;;;;;18.25;81.16;102191.41;4924951;28;45492;-86
2022/10/18 03:48:00;;;;;;;;;28.50;27.25;;;;;18.28;81.16;102202.06;4920461;28;48331;-86
2022/10/18 03:50:25;;;;;;;;;32.75;30.00;;;;;18.28;81.31;102196.72;4924601;28;45293;-86
2022/10/18 03:52:51;;;;;;;;;24.00;23.00;;;;;18.33;80.93;102196.63;4936893;28;45257;-85
2022/10/18 03:55:16;;;;;;;;;29.00;26.50;;;;;18.26;80.96;102185.19;4907351;28;45486;-85
2022/10/18 03:57:41;;;;;;;;;25.50;24.50;;;;;18.32;80.80;102197.53;4924633;28;47509;-85
2022/10/18 04:00:08;;;;;;;;;27.50;26.00;;;;;18.34;80.76;102209.09;4917332;28;45368;-86
2022/10/18 04:02:33;;;;;;;;;28.75;26.00;;;;;18.33;80.32;102211.75;4915283;28;45439;-84
2022/10/18 04:04:59;;;;;;;;;29.50;28.75;;;;;18.29;80.84;102198.47;4918939;28;45562;-85
2022/10/18 04:07:24;;;;;;;;;26.75;24.25;;;;;18.29;80.95;102200.25;4923769;28;46800;-85
2022/10/18 04:09:49;;;;;;;;;27.00;27.00;;;;;18.26;80.67;102200.31;4924173;28;45565;-85
2022/10/18 04:12:15;;;;;;;;;29.25;26.50;;;;;18.33;80.46;102215.28;4919478;28;45600;-85
2022/10/18 04:14:40;;;;;;;;;28.00;27.75;;;;;18.32;80.82;102221.53;4923058;28;45417;-86
2022/10/18 04:17:05;;;;;;;;;33.00;28.75;;;;;18.32;80.70;102208.22;4922957;28;46948;-86
2022/10/18 04:19:31;;;;;;;;;31.50;27.00;;;;;18.25;80.89;102199.38;4922991;28;45428;-85
2022/10/18 04:21:56;;;;;;;;;27.50;23.50;;;;;18.27;80.54;102215.38;4923691;28;45345;-84
2022/10/18 04:24:21;;;;;;;;;29.50;27.25;;;;;18.20;80.62;102208.34;4924502;28;45321;-85
2022/10/18 04:26:47;;;;;;;;;30.75;26.50;;;;;18.17;80.59;102203.06;4923058;28;47530;-85
2022/10/18 04:29:12;;;;;;;;;29.75;27.50;;;;;18.16;80.36;102212.84;4923725;28;45847;-84
2022/10/18 04:31:38;;;;;;;;;22.75;22.25;;;;;18.08;80.47;102206.72;4907672;28;45431;-85
2022/10/18 04:34:03;;;;;;;;;25.50;25.25;;;;;18.07;80.95;102210.31;4922864;28;45545;-85
2022/10/18 04:36:30;;;;;;;;;29.25;27.00;;;;;18.05;80.67;102210.31;4924690;28;46651;-85
2022/10/18 04:38:55;;;;;;;;;29.75;26.00;;;;;17.99;80.47;102210.38;4923441;28;45257;-86
2022/10/18 04:41:20;;;;;;;;;26.75;25.50;;;;;17.96;80.89;102214.84;4907339;28;45292;-86
2022/10/18 04:43:46;;;;;;;;;25.00;23.50;;;;;17.89;81.02;102215.81;4906937;28;45538;-86
2022/10/18 04:46:11;;;;;;;;;33.50;31.00;;;;;17.81;80.65;102219.44;4907013;28;47155;-85
2022/10/18 04:48:37;;;;;;;;;26.00;22.50;;;;;17.80;80.87;102217.69;4922787;28;45182;-85
2022/10/18 04:51:02;;;;;;;;;29.50;27.75;;;;;17.79;80.99;102220.34;4922860;28;45288;-85
2022/10/18 04:53:27;;;;;;;;;34.00;29.75;;;;;17.73;80.89;102212.41;4935346;28;45365;-85
2022/10/18 04:55:53;;;;;;;;;29.75;28.25;;;;;17.72;81.09;102218.59;4906886;28;47109;-86
2022/10/18 04:58:18;;;;;;;;;29.00;24.75;;;;;17.69;81.04;102224.84;4906858;28;45383;-85
2022/10/18 05:00:44;;;;;;;;;30.25;29.00;;;;;17.54;80.77;102209.03;4915476;28;45489;-84
2022/10/18 05:03:12;;;;;;;;;27.50;27.25;;;;;17.62;80.87;102225.81;4899999;28;45490;-85
2022/10/18 05:05:37;;;;;;;;;28.00;25.75;;;;;17.57;81.63;102219.66;4936474;28;46607;-85
2022/10/18 05:08:03;;;;;;;;;29.50;25.75;;;;;17.55;80.69;102219.66;4905943;28;45609;-86
2022/10/18 05:10:28;;;;;;;;;29.50;26.50;;;;;17.51;80.76;102223.25;4927224;28;45259;-86
2022/10/18 05:12:54;;;;;;;;;26.75;25.25;;;;;17.58;80.96;102238.25;4923898;28;45613;-86
2022/10/18 05:15:19;;;;;;;;;30.50;27.00;;;;;17.55;80.76;102232.09;4936499;28;45268;-86
2022/10/18 05:17:44;;;;;;;;;24.75;22.25;;;;;17.52;80.77;102238.31;4922858;28;45257;-86
2022/10/18 05:20:10;;;;;;;;;33.75;28.00;;;;;17.46;80.54;102233.06;4923429;28;45423;-86
2022/10/18 05:22:35;;;;;;;;;28.00;27.25;;;;;17.52;80.70;102242.78;4922442;28;45528;-85
2022/10/18 05:25:01;;;;;;;;;27.50;27.00;;;;;17.53;80.57;102244.53;4922650;28;48047;-85
2022/10/18 05:27:27;;;;;;;;;26.00;24.75;;;;;17.51;80.80;102241.91;4945212;28;45185;-84
2022/10/18 05:29:53;;;;;;;;;29.25;25.75;;;;;17.47;80.50;102229.50;4918995;28;44611;-85
2022/10/18 05:32:18;;;;;;;;;25.00;25.00;;;;;17.56;81.01;102234.75;4915400;28;45245;-85
2022/10/18 05:34:43;;;;;;;;;36.50;30.75;;;;;17.53;80.46;102225.88;4929945;28;46476;-85
2022/10/18 05:37:09;;;;;;;;;28.50;27.50;;;;;17.59;80.69;102233.84;4923447;28;45464;-85
2022/10/18 05:39:36;;;;;;;;;32.75;30.25;;;;;17.54;81.08;102217.91;4923386;28;45469;-86
2022/10/18 05:42:01;;;;;;;;;40.25;32.25;;;;;17.49;80.89;102206.41;4917554;28;45790;-85
2022/10/18 05:44:27;;;;;;;;;27.75;24.50;;;;;17.60;81.09;102228.47;4911784;28;48005;-87
2022/10/18 05:46:52;;;;;;;;;25.25;24.25;;;;;17.60;80.86;102223.16;4911802;28;45454;-85
2022/10/18 05:49:18;;;;;;;;;31.50;27.25;;;;;17.72;80.90;102242.56;4922803;28;45362;-87
2022/10/18 05:51:43;;;;;;;;;27.50;24.75;;;;;17.75;81.11;102247.88;4921972;28;45419;-86
2022/10/18 05:54:12;;;;;;;;;26.75;24.00;;;;;17.70;81.03;102239.94;4922740;28;45399;-86
2022/10/18 05:56:37;;;;;;;;;26.00;26.00;;;;;17.77;80.91;102251.41;4922824;28;45424;-86
2022/10/18 05:59:06;;;;;;;;;23.50;22.75;;;;;17.80;81.00;102244.34;4926628;28;45261;-85
2022/10/18 06:01:32;;;;;;;;;27.25;24.00;;;;;17.81;80.88;102237.22;4935334;28;45382;-81
2022/10/18 06:03:57;;;;;;;;;26.75;23.25;;;;;17.89;80.53;102254.00;4922273;28;45421;-83
2022/10/18 06:06:22;;;;;;;;;21.25;20.00;;;;;17.92;80.77;102251.31;4905163;28;45931;-81
2022/10/18 06:08:48;;;;;;;;;17.75;17.00;;;;;17.93;80.94;102249.50;4905050;28;45430;-82
2022/10/18 06:11:16;;;;;;;;;23.00;19.75;;;;;17.92;80.46;102250.44;4922627;28;45249;-82
2022/10/18 06:13:44;;;;;;;;;22.25;19.25;;;;;17.92;80.50;102245.09;4904630;28;47119;-83
2022/10/18 06:16:10;;;;;;;;;20.75;20.75;;;;;17.86;80.42;102246.06;4904813;28;45826;-84
2022/10/18 06:18:36;;;;;;;;;22.50;20.25;;;;;17.90;80.60;102253.09;4905234;28;45524;-84
2022/10/18 06:21:01;;;;;;;;;23.25;20.25;;;;;17.87;80.16;102261.13;4920967;28;45567;-84
2022/10/18 06:23:27;;;;;;;;;23.00;22.00;;;;;17.82;80.19;102260.28;4922325;28;46207;-83
2022/10/18 06:25:56;;;;;;;;;26.25;21.75;;;;;17.81;80.27;102264.72;4904926;28;45534;-84
2022/10/18 06:28:22;;;;;;;;;25.00;22.75;;;;;17.80;80.41;102276.31;4920588;28;45276;-83
2022/10/18 06:30:47;;;;;;;;;24.00;21.50;;;;;17.80;80.24;102278.06;4920547;28;45586;-80
2022/10/18 06:33:15;;;;;;;;;25.25;18.75;;;;;17.77;80.72;102273.59;4920704;28;48287;-84
2022/10/18 06:35:40;;;;;;;;;21.75;19.00;;;;;17.83;80.24;102275.38;4922120;28;45352;-81
2022/10/18 06:38:05;;;;;;;;;21.75;16.50;;;;;17.74;80.41;102260.31;4904781;28;45814;-80
2022/10/18 06:40:36;;;;;;;;;22.50;21.50;;;;;17.89;80.57;102278.00;4920759;28;45393;-80
2022/10/18 06:43:05;;;;;;;;;23.25;21.00;;;;;17.92;80.70;102277.06;4932419;28;46639;-81
2022/10/18 06:45:32;;;;;;;;;18.00;16.75;;;;;17.95;80.49;102280.59;4921449;28;45458;-85
2022/10/18 06:47:57;;;;;;;;;21.00;17.00;;;;;17.95;80.25;102274.38;4922459;28;45287;-84
2022/10/18 06:50:23;;;;;;;;;21.00;21.00;;;;;18.01;80.50;102282.31;4904591;28;45666;-83
2022/10/18 06:52:51;;;;;;;;;21.50;20.75;;;;;18.07;80.12;102295.59;4904633;28;47081;-81
2022/10/18 06:55:16;;;;;;;;;19.75;19.00;;;;;18.06;80.09;102285.81;4921060;28;46086;-82
2022/10/18 06:57:42;;;;;;;;;21.75;21.00;;;;;18.04;80.34;102268.94;4923477;28;45293;-82
2022/10/18 07:00:08;;;;;;;;;22.00;20.75;;;;;18.12;80.13;102282.19;4935609;28;45189;-81
2022/10/18 07:02:33;;;;;;;;;19.50;17.25;;;;;18.08;80.31;102276.91;4935892;28;46302;-83
2022/10/18 07:04:59;;;;;;;;;19.75;18.75;;;;;18.19;79.81;102289.22;4924679;28;45568;-82
2022/10/18 07:07:24;;;;;;;;;18.33;16.33;;;;;18.28;80.18;102299.78;4926201;28;45238;-81
2022/10/18 07:09:49;;;;;;;;;18.75;17.00;;;;;18.33;80.37;102294.41;4926229;28;45421;-83
2022/10/18 07:12:16;;;;;;;;;19.67;18.67;;;;;18.36;79.98;102294.38;4925008;28;48126;-82
2022/10/18 07:14:42;;;;;;;;;20.75;20.25;;;;;18.43;80.26;102296.97;4926884;28;45427;-84
2022/10/18 07:17:16;;;;;;;;;16.00;15.25;;;;;18.47;80.28;102297.78;4926950;28;45377;-82
2022/10/18 07:19:42;;;;;;;;;20.50;17.00;;;;;18.52;80.02;102303.97;4923266;28;46297;-83
2022/10/18 07:22:07;;;;;;;;;17.00;17.00;;;;;18.60;79.79;102309.22;4907530;28;47022;-83
2022/10/18 07:24:32;;;;;;;;;21.50;20.00;;;;;18.56;79.79;102297.72;4907306;28;45229;-81
2022/10/18 07:26:58;;;;;;;;;18.50;18.50;;;;;18.63;79.90;102306.50;4907059;28;45425;-83
2022/10/18 07:29:23;;;;;;;;;19.75;19.00;;;;;18.74;79.50;102315.28;4924270;28;45347;-79
2022/10/18 07:31:49;;;;;;;;;22.25;20.25;;;;;18.86;79.60;102314.25;4924417;28;45359;-83
2022/10/18 07:34:14;;;;;;;;;19.25;16.00;;;;;18.90;79.75;102305.31;4924311;28;45398;-82
2022/10/18 07:36:40;;;;;;;;;18.67;18.67;;;;;18.96;79.30;102310.56;4924563;28;45236;-79
2022/10/18 07:39:06;;;;;;;;;19.00;17.25;;;;;19.08;79.16;102318.41;4924979;28;45546;-79
2022/10/18 07:41:32;;;;;;;;;18.67;18.00;;;;;19.13;79.50;102305.88;4906581;28;47175;-80
2022/10/18 07:43:59;;;;;;;;;20.25;19.00;;;;;19.31;78.94;102320.75;4922885;28;45201;-80
2022/10/18 07:46:24;;;;;;;;;19.50;19.50;;;;;19.32;78.84;102317.16;4924228;28;45534;-80
2022/10/18 07:48:50;;;;;;;;;22.75;18.50;;;;;19.46;78.81;102335.69;4923905;28;45579;-80
2022/10/18 07:51:17;;;;;;;;;88.50;78.75;;;;;19.51;78.76;102332.91;4922173;28;47068;-80
2022/10/18 07:53:43;;;;;;;;;34.00;27.75;;;;;19.54;78.21;102339.13;4906088;28;45512;-81
2022/10/18 07:56:15;;;;;;;;;24.25;22.75;;;;;19.58;78.10;102343.47;4924219;28;45412;-80
2022/10/18 07:58:41;;;;;;;;;67.25;54.00;;;;;19.57;77.82;102335.50;4924846;28;45592;-79
2022/10/18 08:01:07;;;;;;;;;43.00;38.25;;;;;19.59;77.88;102337.25;4919828;28;48390;-80
2022/10/18 08:03:34;;;;;;;;;41.50;37.25;;;;;19.60;77.55;102333.66;4908640;28;45760;-80
2022/10/18 08:05:59;;;;;;;;;24.00;24.00;;;;;19.71;77.44;102338.88;4922422;28;45233;-80
2022/10/18 08:08:26;;;;;;;;;13.00;11.67;;;;;19.79;77.48;102352.09;4921646;28;45424;-81
2022/10/18 08:10:51;;;;;;;;;18.50;18.00;;;;;19.79;76.92;102350.31;4921995;28;47803;-80
2022/10/18 08:13:17;;;;;;;;;18.33;16.67;;;;;19.74;76.88;102352.19;4905929;28;45284;-80
2022/10/18 08:15:43;;;;;;;;;19.67;17.00;;;;;19.77;76.93;102356.59;4923734;28;45174;-83
2022/10/18 08:18:09;;;;;;;;;21.33;17.67;;;;;19.70;76.41;102360.25;4922197;28;45214;-84
2022/10/18 08:20:35;;;;;;;;;16.67;13.67;;;;;19.71;76.51;102364.72;4916248;28;48444;-84
2022/10/18 08:23:02;;;;;;;;;37.50;33.50;;;;;19.70;76.30;102363.84;4909314;28;45662;-83
2022/10/18 08:25:28;;;;;;;;;16.33;16.00;;;;;19.77;75.86;102361.94;4922327;28;45422;-82
2022/10/18 08:27:54;;;;;;;;;17.00;16.00;;;;;19.85;75.75;102376.06;4905495;28;45520;-77
2022/10/18 08:30:19;;;;;;;;;17.00;16.00;;;;;19.79;75.68;102352.97;4904774;28;47299;-80
2022/10/18 08:32:45;;;;;;;;;15.00;13.33;;;;;19.88;75.54;102367.97;4923116;28;45288;-84
2022/10/18 08:35:10;;;;;;;;;15.00;15.00;;;;;20.03;75.51;102378.44;4906498;28;45455;-80
2022/10/18 08:37:35;;;;;;;;;14.67;14.67;;;;;20.04;75.19;102371.28;4921680;28;45808;-82
2022/10/18 08:40:01;;;;;;;;;13.33;12.00;;;;;20.13;74.93;102379.16;4920573;28;46529;-82
2022/10/18 08:42:56;;;;;;;;;14.67;13.67;;;;;20.22;74.76;102379.00;4920922;28;45421;-80
2022/10/18 08:45:22;;;;;;;;;13.33;12.00;;;;;20.29;74.17;102382.44;4921666;28;45556;-80
2022/10/18 08:47:50;;;;;;;;;15.00;13.67;;;;;20.25;74.29;102375.38;4921803;28;45275;-81
2022/10/18 08:50:22;;;;;;;;;12.33;12.33;;;;;20.30;73.53;102384.22;4907901;28;47302;-87
2022/10/18 08:52:54;;;;;;;;;12.67;11.33;;;;;20.32;73.65;102376.16;4908026;28;45235;-81
2022/10/18 08:55:44;;;;;;;;;14.33;12.33;;;;;20.37;73.45;102380.53;4921744;28;45240;-82
2022/10/18 08:58:22;;;;;;;;;14.00;14.00;;;;;20.42;73.23;102373.28;4921683;28;45446;-89
2022/10/18 09:01:07;;;;;;;;;15.00;13.33;;;;;20.41;73.08;102359.94;4916392;28;48024;-83
2022/10/18 09:03:45;;;;;;;;;11.33;11.00;;;;;20.46;73.01;102361.59;4905264;28;45484;-82
2022/10/18 09:06:16;;;;;;;;;11.33;10.00;;;;;20.53;72.61;102367.75;4920816;28;45318;-83
2022/10/18 09:09:00;;;;;;;;;16.00;14.67;;;;;20.58;72.92;102360.53;4921121;28;45418;-83
2022/10/18 09:11:58;;;;;;;;;15.67;14.67;;;;;20.67;72.42;102368.38;4923483;28;45479;-85
2022/10/18 09:14:48;;;;;;;;;12.67;10.00;;;;;20.76;72.51;102367.28;4909624;28;45876;-87
2022/10/18 09:17:42;;;;;;;;;11.33;11.33;;;;;20.81;72.13;102359.19;4902822;28;45469;-87
2022/10/18 09:20:14;;;;;;;;;13.00;13.00;;;;;20.89;72.08;102363.47;4908409;28;45746;-93
2022/10/18 09:23:01;;;;;;;;;12.33;11.67;;;;;20.88;71.60;102345.63;4931754;28;45657;-93
2022/10/18 09:25:45;;;;;;;;;19.00;15.67;;;;;21.03;71.50;102365.84;4898804;28;45382;-88
2022/10/18 09:28:29;;;;;;;;;14.00;11.00;;;;;21.11;71.30;102363.00;4938965;28;45184;-89
2022/10/18 09:31:17;;;;;;;;;14.67;13.67;;;;;21.19;71.36;102377.09;4935433;28;45335;-91
2022/10/18 09:34:04;;;;;;;;;11.00;11.00;;;;;21.23;70.78;102373.47;4925560;28;45467;-93
2022/10/18 09:36:36;;;;;;;;;11.67;10.33;;;;;21.24;70.62;102364.50;4909547;28;45553;-88
2022/10/18 09:39:10;;;;;;;;;15.33;15.33;;;;;21.39;70.35;102367.78;4925016;28;45298;-90
2022/10/18 09:41:50;;;;;;;;;12.67;10.67;;;;;21.49;70.32;102363.97;4931348;28;45684;-91
2022/10/18 09:44:24;;;;;;;;;16.67;14.00;;;;;21.58;69.86;102364.63;4913136;28;47419;-84
2022/10/18 09:46:56;;;;;;;;;13.67;11.00;;;;;21.64;69.26;102355.56;4921299;28;45478;-87
2022/10/18 09:49:31;;;;;;;;;13.33;12.00;;;;;21.73;69.38;102371.44;4934805;28;45340;-85
2022/10/18 09:52:01;;;;;;;;;12.33;12.33;;;;;21.77;68.79;102375.78;4940768;28;45454;-84
2022/10/18 09:54:29;;;;;;;;;9.67;8.33;;;;;21.87;68.54;102368.41;4908231;28;46811;-85
2022/10/18 09:57:30;;;;;;;;;10.00;10.00;;;;;21.91;68.21;102377.25;4921151;28;45492;-88
2022/10/18 09:59:56;;;;;;;;;11.00;9.00;;;;;21.95;67.96;102374.47;4910922;28;45430;-87
2022/10/18 10:02:22;;;;;;;;;17.67;15.00;;;;;21.99;67.93;102368.09;4915451;28;45662;-86
2022/10/18 10:04:50;;;;;;;;;10.67;10.33;;;;;22.13;67.63;102373.13;4905593;28;46975;-84
2022/10/18 10:07:33;;;;;;;;;8.67;8.33;;;;;22.28;67.04;102376.34;4931463;28;45463;-86
2022/10/18 10:10:24;;;;;;;;;9.00;8.00;;;;;22.32;66.88;102365.50;4937853;28;45387;-92
2022/10/18 10:13:06;;;;;;;;;9.67;9.00;;;;;22.46;66.62;102366.00;4926486;28;45284;-88
2022/10/18 10:15:35;;;;;;;;;11.00;10.33;;;;;22.65;66.43;102381.59;4942674;28;46894;-90
2022/10/18 10:18:01;;;;;;;;;13.67;9.33;;;;;22.70;66.24;102376.97;4931014;28;45268;-89
2022/10/18 10:20:35;;;;;;;;;15.33;11.67;;;;;22.72;65.67;102380.50;4927139;28;45289;-88
2022/10/18 10:23:30;;;;;;;;;16.00;14.33;;;;;22.70;65.46;102376.09;4902645;28;45500;-89
2022/10/18 10:26:22;;;;;;;;;11.00;11.00;;;;;22.65;65.28;102369.03;4915991;28;45459;-87
2022/10/18 10:28:47;;;;;;;;;9.33;8.33;;;;;22.65;65.06;102373.53;4897463;28;45266;-84
2022/10/18 10:31:31;;;;;;;;;7.33;7.33;;;;;22.70;65.27;102374.28;4931775;28;45468;-86
2022/10/18 10:34:11;;;;;;;;;11.33;9.00;;;;;22.76;64.48;102383.97;4908540;28;45511;-84
2022/10/18 10:36:47;;;;;;;;;9.67;9.67;;;;;22.76;64.81;102383.97;4900855;28;46969;-86
2022/10/18 10:39:18;;;;;;;;;8.67;8.67;;;;;22.79;64.33;102378.50;4910456;28;45780;-82
2022/10/18 10:41:48;;;;;;;;;10.00;9.00;;;;;22.87;64.48;102380.03;4926487;28;45318;-81
2022/10/18 10:44:17;;;;;;;;;7.67;7.67;;;;;22.91;64.53;102375.47;4933108;28;45665;-81
2022/10/18 10:46:42;;;;;;;;;10.67;9.00;;;;;22.84;63.66;102361.34;4931140;28;47078;-85
2022/10/18 10:49:19;;;;;;;;;9.67;9.67;;;;;22.88;63.68;102370.19;4935302;28;45197;-83
2022/10/18 10:51:53;;;;;;;;;10.00;7.67;;;;;22.88;63.78;102378.22;4931427;28;45467;-83
2022/10/18 10:54:22;;;;;;;;;11.67;9.67;;;;;22.77;63.51;102364.25;4923668;28;45473;-82
2022/10/18 10:57:02;;;;;;;;;8.00;8.00;;;;;22.75;63.96;102369.69;4924801;28;45388;-83
2022/10/18 10:59:43;;;;;;;;;10.33;8.67;;;;;22.73;64.04;102365.28;4939277;28;45209;-83
2022/10/18 11:02:17;;;;;;;;;10.67;10.67;;;;;22.86;64.06;102367.56;4910883;28;45422;-82
2022/10/18 11:04:48;;;;;;;;;12.00;12.00;;;;;23.10;64.29;102367.78;4941206;28;45488;-87
2022/10/18 11:07:35;;;;;;;;;7.00;6.00;;;;;23.25;63.59;102363.75;4921247;28;48494;-87
2022/10/18 11:10:09;;;;;;;;;11.00;11.00;;;;;23.25;62.80;102364.63;4913713;28;45463;-87
2022/10/18 11:12:46;;;;;;;;;8.67;8.67;;;;;23.17;62.60;102355.03;4926703;28;45443;-87
2022/10/18 11:15:24;;;;;;;;;7.00;7.00;;;;;23.18;62.90;102354.13;4929513;28;45281;-86
2022/10/18 11:18:08;;;;;;;;;10.00;9.33;;;;;23.26;62.60;102357.47;4924940;28;47188;-83
2022/10/18 11:20:46;;;;;;;;;8.00;8.00;;;;;23.39;62.83;102342.72;4925003;28;45359;-85